Terminal Aerodrome Forecast
Issued by NWS Charleston, SC

Home | Current Version | Previous Version | Text Only | Print | Product List | Glossary On
Versions: 1 2 3 4 5 6 7 8 9 10 11 12 13
000
FTUS42 KCHS 211120
TAFCHS
TAF
KCHS 211120Z 2112/2212 05005KT P6SM VCSH SCT025 BKN150
     FM211600 12007KT P6SM VCTS SCT030CB BKN060
      TEMPO 2116/2120 5SM SHRA BKN030
     FM212200 14005KT P6SM SCT030 BKN080
     FM220400 VRB02KT P6SM SCT015 BKN200=

USA.gov is the U.S. government's official web portal to all federal, state and local government web resources and services.